Time;durP1;ratioP1;P1;durP2;ratioP2;P2;SDS_P1;SDS_P2;PMS_P1;PMS_P2;Temp;Humidity;BMP_temperature;BMP_pressure;BME280_temperature;BME280_humidity;BME280_pressure;Samples;Min_cycle;Max_cycle;Signal;HPM_P1;HPM_P2
2021/07/16 00:01:44;;;;;;;34.10;23.33;;;19.50;99.90;;;;;;4991235;28;20046;-77
2021/07/16 00:04:11;;;;;;;33.50;23.50;;;19.50;99.90;;;;;;4991272;28;20055;-78
2021/07/16 00:06:39;;;;;;;39.75;24.67;;;19.50;99.90;;;;;;4991758;28;20153;-79
2021/07/16 00:09:06;;;;;;;35.28;24.88;;;19.40;99.90;;;;;;4991719;28;20086;-79
2021/07/16 00:11:35;;;;;;;38.95;25.13;;;19.40;99.90;;;;;;4991427;28;20093;-77
2021/07/16 00:14:03;;;;;;;33.85;23.85;;;19.40;99.90;;;;;;4993775;28;20096;-78
2021/07/16 00:16:30;;;;;;;45.13;25.35;;;19.40;99.90;;;;;;4995312;28;20423;-78
2021/07/16 00:18:57;;;;;;;36.55;25.02;;;19.40;99.90;;;;;;4995379;28;20422;-78
2021/07/16 00:21:24;;;;;;;40.00;25.23;;;19.30;99.90;;;;;;4995099;28;20054;-78
2021/07/16 00:23:51;;;;;;;33.53;25.48;;;19.30;99.90;;;;;;4995084;28;20046;-79
2021/07/16 00:26:18;;;;;;;38.20;24.60;;;19.40;99.90;;;;;;4995064;28;20081;-79
2021/07/16 00:28:46;;;;;;;39.17;24.55;;;19.40;99.90;;;;;;4994923;28;20060;-78
2021/07/16 00:31:13;;;;;;;38.45;24.25;;;19.40;99.90;;;;;;4995565;28;20054;-79
2021/07/16 00:33:40;;;;;;;35.83;23.75;;;19.40;99.90;;;;;;4995021;28;20042;-79
2021/07/16 00:36:07;;;;;;;38.53;25.00;;;19.40;99.90;;;;;;4995391;28;20046;-79
2021/07/16 00:38:34;;;;;;;35.08;23.73;;;19.50;99.90;;;;;;4995143;28;20138;-77
2021/07/16 00:41:01;;;;;;;39.10;23.65;;;19.50;99.90;;;;;;4994952;28;20133;-79
2021/07/16 00:43:28;;;;;;;39.15;23.00;;;19.50;99.90;;;;;;4997099;28;20141;-78
2021/07/16 00:45:56;;;;;;;31.35;21.85;;;19.40;99.90;;;;;;4998515;28;20046;-78
2021/07/16 00:48:23;;;;;;;33.25;21.67;;;19.50;99.90;;;;;;4996541;28;20110;-77
2021/07/16 00:50:52;;;;;;;32.08;22.45;;;19.50;99.90;;;;;;4994512;28;20078;-79
2021/07/16 00:53:21;;;;;;;32.53;21.00;;;19.50;99.90;;;;;;4994250;28;20054;-79
2021/07/16 00:55:49;;;;;;;30.27;20.00;;;19.50;99.90;;;;;;4994284;28;20053;-79
2021/07/16 00:58:17;;;;;;;28.60;19.90;;;19.60;99.90;;;;;;4994349;28;20494;-79
2021/07/16 01:00:44;;;;;;;33.58;20.08;;;19.50;99.90;;;;;;4994413;28;20054;-78
2021/07/16 01:03:12;;;;;;;30.02;19.42;;;19.50;99.90;;;;;;4994101;28;20133;-78
2021/07/16 01:05:40;;;;;;;34.13;20.35;;;19.50;99.90;;;;;;4994147;28;20076;-78
2021/07/16 01:08:07;;;;;;;33.95;20.98;;;19.50;99.90;;;;;;4994049;28;20058;-79
2021/07/16 01:10:35;;;;;;;31.98;21.30;;;19.50;99.90;;;;;;4994263;28;20108;-78
2021/07/16 01:13:02;;;;;;;32.95;21.25;;;19.40;99.90;;;;;;4994144;28;20072;-78
2021/07/16 01:15:32;;;;;;;29.58;20.48;;;19.30;99.90;;;;;;4994027;28;20089;-78
2021/07/16 01:18:00;;;;;;;32.65;20.27;;;19.30;99.90;;;;;;4993930;28;20065;-78
2021/07/16 01:20:30;;;;;;;32.25;19.35;;;19.30;99.90;;;;;;4994019;28;20056;-79
2021/07/16 01:22:59;;;;;;;31.13;19.02;;;19.30;99.90;;;;;;4993637;28;20061;-80
2021/07/16 01:25:30;;;;;;;29.17;18.50;;;19.30;99.90;;;;;;4993528;28;20050;-78
2021/07/16 01:27:59;;;;;;;28.42;17.63;;;19.30;99.90;;;;;;4994025;28;20056;-78
2021/07/16 01:30:28;;;;;;;34.15;18.17;;;19.30;99.90;;;;;;4993972;28;20054;-79
2021/07/16 01:32:55;;;;;;;28.38;17.05;;;19.30;99.90;;;;;;5019059;23;20481;-82
2021/07/16 01:35:24;;;;;;;25.50;16.80;;;19.20;99.90;;;;;;5001866;28;20129;-84
2021/07/16 01:37:51;;;;;;;27.00;17.45;;;19.20;99.90;;;;;;5001962;28;20137;-85
2021/07/16 01:40:20;;;;;;;30.92;17.95;;;19.20;99.90;;;;;;5002180;28;20060;-84
2021/07/16 01:42:51;;;;;;;26.17;16.77;;;19.20;99.90;;;;;;4999897;28;20521;-83
2021/07/16 01:45:21;;;;;;;29.45;17.10;;;19.10;99.90;;;;;;5000398;28;20429;-83
2021/07/16 01:47:49;;;;;;;28.33;17.35;;;19.10;99.90;;;;;;5001024;28;20132;-83
2021/07/16 01:50:17;;;;;;;27.00;16.63;;;19.00;99.90;;;;;;5000820;28;20054;-84
2021/07/16 01:52:45;;;;;;;33.22;17.05;;;19.00;99.90;;;;;;5001124;28;20084;-83
2021/07/16 01:55:13;;;;;;;25.05;16.45;;;18.90;99.90;;;;;;5000033;28;20074;-84
2021/07/16 01:57:40;;;;;;;23.15;16.85;;;18.90;99.90;;;;;;5000316;28;20475;-84
2021/07/16 02:00:12;;;;;;;27.35;16.77;;;18.90;99.90;;;;;;5000240;28;20089;-82
2021/07/16 02:02:48;;;;;;;28.67;15.73;;;19.00;99.90;;;;;;4998666;28;20308;-82
2021/07/16 02:05:16;;;;;;;28.30;17.77;;;19.00;99.90;;;;;;5008183;28;20042;-81
2021/07/16 02:07:43;;;;;;;29.85;18.75;;;19.00;99.90;;;;;;5007206;28;20161;-82
2021/07/16 02:10:11;;;;;;;32.42;18.13;;;19.00;99.90;;;;;;5007100;28;20133;-82
2021/07/16 02:12:38;;;;;;;24.05;18.00;;;19.00;99.90;;;;;;5004059;28;20133;-84
2021/07/16 02:15:14;;;;;;;29.33;20.25;;;19.00;99.90;;;;;;5003166;28;20100;-84
2021/07/16 02:17:41;;;;;;;31.08;19.50;;;19.00;99.90;;;;;;5005919;28;20085;-84
2021/07/16 02:20:19;;;;;;;31.20;19.02;;;19.00;99.90;;;;;;5004106;28;20057;-83
2021/07/16 02:22:47;;;;;;;30.50;18.15;;;19.00;99.90;;;;;;5004364;28;20295;-82
2021/07/16 02:25:14;;;;;;;27.15;18.52;;;19.10;99.90;;;;;;5005568;28;20125;-83
2021/07/16 02:27:42;;;;;;;29.48;18.75;;;19.10;99.90;;;;;;5006797;28;20050;-82
2021/07/16 02:30:10;;;;;;;34.13;20.52;;;19.10;99.90;;;;;;5007819;28;20046;-82
2021/07/16 02:32:38;;;;;;;25.98;20.05;;;19.10;99.90;;;;;;5008935;28;20118;-82
2021/07/16 02:35:07;;;;;;;32.00;21.23;;;19.00;99.90;;;;;;5008575;28;20073;-83
2021/07/16 02:37:34;;;;;;;32.47;21.80;;;19.00;99.90;;;;;;5009233;28;20086;-83
2021/07/16 02:40:01;;;;;;;32.78;21.83;;;19.00;99.90;;;;;;5012785;28;20058;-82
2021/07/16 02:42:28;;;;;;;33.15;22.92;;;18.80;99.90;;;;;;5009212;28;20054;-83
2021/07/16 02:44:55;;;;;;;40.88;22.77;;;18.90;99.90;;;;;;5006436;28;20046;-83
2021/07/16 02:47:22;;;;;;;34.53;23.25;;;18.80;99.90;;;;;;5006078;28;20078;-84
2021/07/16 02:49:51;;;;;;;44.88;26.30;;;18.80;99.90;;;;;;5003512;28;20106;-83
2021/07/16 02:52:18;;;;;;;35.55;26.77;;;18.80;99.90;;;;;;5002419;28;20089;-83
2021/07/16 02:54:44;;;;;;;39.78;26.17;;;18.80;99.90;;;;;;5002500;28;20124;-81
2021/07/16 02:57:11;;;;;;;39.88;26.92;;;18.70;99.90;;;;;;5002251;28;20078;-83
2021/07/16 02:59:38;;;;;;;40.65;26.42;;;18.60;99.90;;;;;;5002441;28;20046;-83
2021/07/16 03:02:08;;;;;;;36.33;25.75;;;18.60;99.90;;;;;;5003243;28;20114;-84
2021/07/16 03:04:35;;;;;;;36.35;27.38;;;18.60;99.90;;;;;;5004984;28;20416;-83
2021/07/16 03:07:03;;;;;;;40.13;25.17;;;18.50;99.90;;;;;;5005326;28;20114;-82
2021/07/16 03:09:34;;;;;;;35.50;23.00;;;18.50;99.90;;;;;;5009886;28;20082;-82
2021/07/16 03:12:02;;;;;;;35.33;21.25;;;18.50;99.90;;;;;;5011567;28;20050;-81
2021/07/16 03:14:28;;;;;;;38.78;21.80;;;18.40;99.90;;;;;;5011169;28;20046;-82
2021/07/16 03:16:55;;;;;;;31.13;21.17;;;18.30;99.90;;;;;;5009682;28;20077;-82
2021/07/16 03:19:22;;;;;;;36.25;20.95;;;18.30;99.90;;;;;;5003779;28;20050;-82
2021/07/16 03:21:49;;;;;;;30.50;20.73;;;18.30;99.90;;;;;;5003545;28;20054;-82
2021/07/16 03:24:19;;;;;;;29.92;19.75;;;18.30;99.90;;;;;;5004124;28;20073;-83
2021/07/16 03:26:46;;;;;;;30.88;19.40;;;18.30;99.90;;;;;;5004670;28;20073;-82
2021/07/16 03:29:13;;;;;;;30.95;19.85;;;18.30;99.90;;;;;;5003919;28;20065;-82
2021/07/16 03:31:40;;;;;;;36.30;19.63;;;18.30;99.90;;;;;;5004442;28;20149;-82
2021/07/16 03:34:07;;;;;;;29.83;20.02;;;18.30;99.90;;;;;;5003605;28;20070;-82
2021/07/16 03:36:34;;;;;;;33.58;21.75;;;18.40;99.90;;;;;;5004543;28;20118;-82
2021/07/16 03:39:01;;;;;;;33.05;21.35;;;18.40;99.90;;;;;;5000857;28;20428;-84
2021/07/16 03:41:30;;;;;;;38.28;23.10;;;18.40;99.90;;;;;;4997573;28;20074;-83
2021/07/16 03:43:57;;;;;;;37.35;23.90;;;18.40;99.90;;;;;;4997103;28;20085;-83
2021/07/16 03:46:27;;;;;;;35.38;24.65;;;18.40;99.90;;;;;;4998172;28;20089;-82
2021/07/16 03:48:55;;;;;;;37.83;24.83;;;18.50;99.90;;;;;;5001935;28;20054;-81
2021/07/16 03:51:22;;;;;;;37.85;25.10;;;18.50;99.90;;;;;;5002193;28;20069;-83
2021/07/16 03:53:49;;;;;;;45.20;25.90;;;18.40;99.90;;;;;;5006807;28;20125;-83
2021/07/16 03:56:16;;;;;;;35.97;24.13;;;18.40;99.90;;;;;;5006426;28;20129;-84
2021/07/16 03:58:45;;;;;;;36.00;25.73;;;18.40;99.90;;;;;;5004970;28;20089;-84
2021/07/16 04:01:13;;;;;;;42.95;25.58;;;18.40;99.90;;;;;;5002959;28;20084;-82
2021/07/16 04:03:40;;;;;;;39.15;25.23;;;18.30;99.90;;;;;;5002176;28;20057;-82
2021/07/16 04:06:08;;;;;;;34.70;24.90;;;18.30;99.90;;;;;;5001483;28;20133;-82
2021/07/16 04:08:37;;;;;;;32.25;24.10;;;18.30;99.90;;;;;;5002412;28;20054;-83
2021/07/16 04:11:05;;;;;;;38.65;24.83;;;18.30;99.90;;;;;;5002281;28;20054;-82
2021/07/16 04:13:32;;;;;;;37.33;24.00;;;18.20;99.90;;;;;;5005190;28;20093;-82
2021/07/16 04:16:00;;;;;;;33.53;24.23;;;18.20;99.90;;;;;;5003749;28;20086;-83
2021/07/16 04:18:27;;;;;;;44.53;24.42;;;18.20;99.90;;;;;;5002477;28;20050;-82
2021/07/16 04:20:54;;;;;;;37.25;25.35;;;18.20;99.90;;;;;;5003113;28;20054;-81
2021/07/16 04:23:21;;;;;;;39.53;25.35;;;18.20;99.90;;;;;;5002849;28;20057;-83
2021/07/16 04:25:49;;;;;;;34.22;23.98;;;18.10;99.90;;;;;;5003525;28;20050;-83
2021/07/16 04:28:16;;;;;;;34.72;24.63;;;18.10;99.90;;;;;;5003378;28;20083;-82
2021/07/16 04:30:43;;;;;;;35.28;23.35;;;18.10;99.90;;;;;;5003371;28;20134;-84
2021/07/16 04:33:11;;;;;;;41.38;24.60;;;18.10;99.90;;;;;;5001837;28;20137;-82
2021/07/16 04:35:41;;;;;;;37.25;24.05;;;18.10;99.90;;;;;;5002373;28;20046;-84
2021/07/16 04:38:07;;;;;;;40.97;23.75;;;18.10;99.90;;;;;;5002678;28;20458;-85
2021/07/16 04:40:35;;;;;;;34.50;23.45;;;18.10;99.90;;;;;;5003205;28;20118;-84
2021/07/16 04:43:02;;;;;;;39.60;23.52;;;18.00;99.90;;;;;;5002219;28;20046;-86
2021/07/16 04:45:31;;;;;;;30.95;23.73;;;18.00;99.90;;;;;;5001726;28;20049;-84
2021/07/16 04:47:58;;;;;;;39.63;23.83;;;18.00;99.90;;;;;;4999425;28;20090;-87
2021/07/16 04:50:26;;;;;;;40.08;24.77;;;18.00;99.90;;;;;;5000005;28;20058;-84
2021/07/16 04:52:53;;;;;;;38.35;23.60;;;17.90;99.90;;;;;;5003122;28;20085;-82
2021/07/16 04:55:21;;;;;;;35.55;22.80;;;17.90;99.90;;;;;;5007077;28;20101;-83
2021/07/16 04:57:48;;;;;;;35.03;22.17;;;17.90;99.90;;;;;;5000982;28;20054;-84
2021/07/16 05:00:17;;;;;;;34.63;20.90;;;18.00;99.90;;;;;;5000837;28;20537;-84
2021/07/16 05:02:44;;;;;;;36.15;21.08;;;18.00;99.90;;;;;;5001999;28;20050;-83
2021/07/16 05:05:12;;;;;;;33.63;20.00;;;18.00;99.90;;;;;;5001953;28;20050;-83
2021/07/16 05:07:40;;;;;;;28.02;18.58;;;18.00;99.90;;;;;;5001201;28;20085;-84
2021/07/16 05:10:09;;;;;;;33.78;18.88;;;18.00;99.90;;;;;;5001984;28;20109;-84
2021/07/16 05:12:36;;;;;;;30.40;18.23;;;18.10;99.90;;;;;;5000766;28;20106;-84
2021/07/16 05:15:04;;;;;;;26.35;18.60;;;18.20;99.90;;;;;;5001346;28;20054;-84
2021/07/16 05:17:31;;;;;;;33.85;19.67;;;18.20;99.90;;;;;;5003886;28;20047;-85
2021/07/16 05:19:58;;;;;;;35.13;17.90;;;18.20;99.90;;;;;;5004926;28;20414;-84
2021/07/16 05:22:24;;;;;;;23.88;17.70;;;18.20;99.90;;;;;;4978641;28;20130;-85
2021/07/16 05:24:53;;;;;;;29.13;17.98;;;18.20;99.90;;;;;;4974454;28;20047;-83
2021/07/16 05:27:19;;;;;;;27.40;17.77;;;18.20;99.90;;;;;;4978747;28;20114;-82
2021/07/16 05:29:46;;;;;;;27.58;16.33;;;18.20;99.90;;;;;;4970724;28;20698;-82
2021/07/16 05:32:13;;;;;;;30.60;17.77;;;18.20;99.90;;;;;;4970702;28;20102;-82
2021/07/16 05:34:40;;;;;;;27.95;16.52;;;18.10;99.90;;;;;;4972039;28;20134;-83
2021/07/16 05:37:08;;;;;;;27.70;17.95;;;18.10;99.90;;;;;;4970997;28;20050;-84
2021/07/16 05:39:35;;;;;;;29.80;17.52;;;18.00;99.90;;;;;;4970126;28;20042;-84
2021/07/16 05:42:04;;;;;;;27.00;17.75;;;18.00;99.90;;;;;;4974654;28;20058;-83
2021/07/16 05:44:32;;;;;;;29.92;17.33;;;18.00;99.90;;;;;;4968869;28;20101;-83
2021/07/16 05:46:58;;;;;;;29.77;18.02;;;18.00;99.90;;;;;;4971523;28;20447;-84
2021/07/16 05:49:27;;;;;;;30.65;17.35;;;18.00;99.90;;;;;;4982759;28;20054;-84
2021/07/16 05:51:55;;;;;;;37.17;18.33;;;17.90;99.90;;;;;;4984946;28;20051;-83
2021/07/16 05:54:22;;;;;;;29.17;17.95;;;17.90;99.90;;;;;;4984890;28;20078;-83
2021/07/16 05:56:50;;;;;;;36.65;20.02;;;17.90;99.90;;;;;;4974595;28;20054;-83
2021/07/16 05:59:20;;;;;;;34.22;19.25;;;17.90;99.90;;;;;;4967875;29;20062;-82
2021/07/16 06:01:50;;;;;;;31.30;18.77;;;17.90;99.90;;;;;;4980868;28;20078;-83
2021/07/16 06:04:26;;;;;;;32.53;19.20;;;17.90;99.90;;;;;;4971817;28;20047;-81
2021/07/16 06:06:55;;;;;;;28.25;18.55;;;17.90;99.90;;;;;;4989123;28;20090;-84
2021/07/16 06:09:25;;;;;;;27.70;17.98;;;17.90;99.90;;;;;;4976644;28;20110;-82
2021/07/16 06:11:52;;;;;;;28.80;18.88;;;17.90;99.90;;;;;;4975049;28;20236;-84
2021/07/16 06:14:22;;;;;;;31.30;19.30;;;17.90;99.90;;;;;;4973926;28;20059;-85
2021/07/16 06:16:50;;;;;;;32.28;21.05;;;17.90;99.90;;;;;;4980845;28;20057;-84
2021/07/16 06:19:17;;;;;;;31.85;21.48;;;17.90;99.90;;;;;;4967055;28;20058;-84
2021/07/16 06:21:44;;;;;;;32.40;19.95;;;17.90;99.90;;;;;;4978019;28;20050;-84
2021/07/16 06:24:11;;;;;;;32.10;20.05;;;17.90;99.90;;;;;;4975507;28;20110;-86
2021/07/16 06:26:39;;;;;;;30.25;20.92;;;17.90;99.90;;;;;;4973578;28;20063;-84
2021/07/16 06:29:07;;;;;;;33.28;21.70;;;17.90;99.90;;;;;;4977513;28;20071;-85
2021/07/16 06:31:36;;;;;;;29.05;20.52;;;17.90;99.90;;;;;;4981979;28;20054;-82
2021/07/16 06:34:07;;;;;;;28.55;20.85;;;17.90;99.90;;;;;;4982415;28;20109;-82
2021/07/16 06:36:34;;;;;;;34.90;20.45;;;18.00;99.90;;;;;;4980252;28;20058;-84
2021/07/16 06:39:03;;;;;;;31.83;19.45;;;18.00;99.90;;;;;;4988314;28;20138;-83
2021/07/16 06:41:30;;;;;;;27.77;18.65;;;18.00;99.90;;;;;;4986599;28;20098;-82
2021/07/16 06:43:57;;;;;;;26.35;18.13;;;18.00;99.90;;;;;;4968262;28;20055;-84
2021/07/16 06:46:24;;;;;;;28.15;17.73;;;18.00;99.90;;;;;;4968376;28;20090;-83
2021/07/16 06:48:55;;;;;;;29.80;18.08;;;18.10;99.90;;;;;;4976847;28;20054;-80
2021/07/16 06:51:22;;;;;;;28.73;17.25;;;18.10;99.90;;;;;;4978587;28;20062;-79
2021/07/16 06:53:49;;;;;;;25.88;17.83;;;18.20;99.90;;;;;;4978040;28;20039;-83
2021/07/16 06:56:16;;;;;;;24.00;17.23;;;18.20;99.90;;;;;;4977581;28;20067;-80
2021/07/16 06:58:43;;;;;;;26.15;17.70;;;18.10;99.90;;;;;;4977246;28;20043;-79
2021/07/16 07:01:10;;;;;;;28.20;16.52;;;18.20;99.90;;;;;;4968683;28;20093;-84
2021/07/16 07:03:41;;;;;;;25.05;16.00;;;18.30;99.90;;;;;;4968695;28;20051;-84
2021/07/16 07:06:10;;;;;;;23.27;16.90;;;18.30;99.90;;;;;;4968735;29;20055;-85
2021/07/16 07:08:36;;;;;;;24.73;16.35;;;18.30;99.90;;;;;;4966586;29;20424;-85
2021/07/16 07:11:03;;;;;;;24.45;16.13;;;18.30;99.90;;;;;;4967477;29;20054;-83
2021/07/16 07:13:30;;;;;;;27.02;15.73;;;18.30;99.90;;;;;;4962743;29;20506;-81
2021/07/16 07:15:57;;;;;;;26.48;15.50;;;18.30;99.90;;;;;;4961261;29;20419;-81
2021/07/16 07:18:24;;;;;;;24.58;16.27;;;18.30;99.90;;;;;;4960749;29;20134;-85
2021/07/16 07:20:52;;;;;;;27.75;17.38;;;18.30;99.90;;;;;;4959620;29;20047;-84
2021/07/16 07:23:23;;;;;;;22.65;15.38;;;18.30;99.90;;;;;;4957986;28;20066;-83
2021/07/16 07:25:50;;;;;;;28.85;16.38;;;18.30;99.90;;;;;;4960160;29;20085;-84
2021/07/16 07:28:17;;;;;;;28.65;16.73;;;18.30;99.90;;;;;;4960168;29;20464;-84
2021/07/16 07:30:50;;;;;;;30.88;18.73;;;18.40;99.90;;;;;;4963477;28;20560;-84
2021/07/16 07:37:16;;;;;;;28.50;16.33;;;18.30;99.90;;;;;;4316245;26;20081;-80
2021/07/16 07:40:26;;;;;;;36.50;18.23;;;18.30;99.90;;;;;;4973327;28;20089;-80
2021/07/16 07:45:57;;;;;;;33.33;21.88;;;18.30;99.90;;;;;;4976053;28;20125;-81
2021/07/16 07:48:54;;;;;;;31.23;20.95;;;18.30;99.90;;;;;;4974985;28;20051;-81
2021/07/16 07:54:24;;;;;;;26.15;17.02;;;18.30;99.90;;;;;;4975169;28;20058;-80
2021/07/16 07:56:58;;;;;;;24.75;15.88;;;18.40;99.90;;;;;;4976353;28;20046;-78
2021/07/16 08:00:03;;;;;;;23.13;14.55;;;18.40;99.90;;;;;;4974625;28;20055;-79
2021/07/16 08:06:18;;;;;;;22.88;13.10;;;18.50;99.90;;;;;;4972437;28;20046;-80
2021/07/16 08:09:08;;;;;;;;;;;;;;;;;;;;;
2021/07/16 08:12:06;;;;;;;20.92;13.38;;;18.50;99.90;;;;;;4974827;28;20519;-81
2021/07/16 08:15:21;;;;;;;26.50;17.02;;;18.50;99.90;;;;;;4978811;28;20476;-81
2021/07/16 08:18:17;;;;;;;22.67;16.05;;;18.40;99.90;;;;;;4979803;28;20070;-79
2021/07/16 08:21:09;;;;;;;22.63;15.40;;;18.40;99.90;;;;;;4978599;28;20058;-80
2021/07/16 08:23:46;;;;;;;22.58;15.63;;;18.50;99.90;;;;;;4977414;28;20516;-81
2021/07/16 08:26:37;;;;;;;22.55;14.32;;;18.50;99.90;;;;;;4974548;28;20133;-79
2021/07/16 08:32:42;;;;;;;19.65;12.35;;;18.80;99.90;;;;;;4871042;29;20089;-79
2021/07/16 08:38:24;;;;;;;22.83;13.77;;;19.00;99.90;;;;;;4975387;28;20420;-81
2021/07/16 08:47:40;;;;;;;19.85;12.68;;;19.30;99.90;;;;;;4937454;29;20051;-79
2021/07/16 08:56:53;;;;;;;26.60;12.63;;;19.70;99.90;;;;;;5034212;23;20478;-79
2021/07/16 08:59:20;;;;;;;24.73;11.70;;;19.90;99.90;;;;;;5013937;28;20195;-79
2021/07/16 09:01:47;;;;;;;21.88;12.00;;;20.00;99.90;;;;;;5013778;28;20177;-78
2021/07/16 09:04:15;;;;;;;22.48;12.95;;;20.10;99.90;;;;;;5014034;28;20092;-78
2021/07/16 09:06:46;;;;;;;25.65;12.52;;;19.80;99.90;;;;;;5014041;28;20154;-79
2021/07/16 09:09:14;;;;;;;23.88;14.90;;;19.80;99.90;;;;;;5013614;28;20053;-79
2021/07/16 09:11:41;;;;;;;21.48;14.70;;;19.70;99.90;;;;;;5016963;28;20050;-79
2021/07/16 09:14:08;;;;;;;26.65;14.45;;;19.70;99.90;;;;;;5013220;28;20050;-78
2021/07/16 09:16:35;;;;;;;23.67;14.48;;;19.60;99.90;;;;;;5013525;28;20056;-79
2021/07/16 09:19:02;;;;;;;23.88;14.45;;;19.60;99.90;;;;;;5014977;28;20050;-80
2021/07/16 09:21:30;;;;;;;25.05;13.48;;;19.50;99.90;;;;;;5015906;28;20447;-78
2021/07/16 09:24:05;;;;;;;24.67;13.60;;;19.50;99.90;;;;;;5014628;28;20141;-79
2021/07/16 09:26:35;;;;;;;25.05;13.93;;;19.40;99.90;;;;;;5014631;28;20050;-79
2021/07/16 09:29:04;;;;;;;28.08;13.43;;;19.30;99.90;;;;;;5015020;28;20049;-79
2021/07/16 09:31:37;;;;;;;23.83;14.27;;;19.30;99.90;;;;;;5013800;28;20054;-78
2021/07/16 09:34:11;;;;;;;25.13;15.98;;;19.20;99.90;;;;;;5015207;28;20054;-79
2021/07/16 09:36:39;;;;;;;24.75;14.80;;;19.10;99.90;;;;;;5018211;28;20058;-80
2021/07/16 09:39:09;;;;;;;21.52;14.15;;;19.20;99.90;;;;;;5014137;28;20096;-79
2021/07/16 09:41:48;;;;;;;25.77;15.80;;;19.20;99.90;;;;;;5013223;28;20061;-78
2021/07/16 09:44:15;;;;;;;24.90;17.35;;;19.10;99.90;;;;;;5012894;28;20049;-78
2021/07/16 09:47:09;;;;;;;29.70;19.95;;;19.20;99.90;;;;;;5013125;28;20475;-79
2021/07/16 09:49:37;;;;;;;29.75;21.02;;;19.20;99.90;;;;;;5012876;28;20125;-79
2021/07/16 09:52:10;;;;;;;26.27;19.25;;;19.40;99.90;;;;;;5013947;28;20052;-79
2021/07/16 09:54:37;;;;;;;28.42;16.30;;;19.50;99.90;;;;;;5015656;28;20082;-80
2021/07/16 09:57:05;;;;;;;25.02;15.45;;;19.60;99.90;;;;;;5015729;28;20077;-79
2021/07/16 09:59:32;;;;;;;24.67;14.02;;;19.80;99.90;;;;;;5016271;28;20129;-79
2021/07/16 10:01:59;;;;;;;21.50;13.85;;;20.00;99.90;;;;;;5015017;28;20050;-77
2021/07/16 10:04:32;;;;;;;18.15;13.10;;;20.20;99.90;;;;;;5015216;28;20133;-79
2021/07/16 10:07:00;;;;;;;17.10;11.38;;;20.20;99.90;;;;;;5013617;28;20093;-79
2021/07/16 10:09:28;;;;;;;17.23;10.55;;;20.20;99.90;;;;;;5013520;28;20422;-79
2021/07/16 10:11:56;;;;;;;18.20;10.82;;;20.30;99.90;;;;;;5013764;28;20052;-79
2021/07/16 10:14:24;;;;;;;17.75;9.82;;;20.30;99.90;;;;;;5013226;28;20046;-78
2021/07/16 10:16:52;;;;;;;19.98;9.95;;;20.40;99.90;;;;;;5013073;28;20093;-78
2021/07/16 10:19:21;;;;;;;19.73;9.38;;;20.60;99.90;;;;;;4985637;28;20090;-79
2021/07/16 10:21:49;;;;;;;16.02;9.25;;;20.70;99.90;;;;;;4974335;28;20097;-79
2021/07/16 10:24:20;;;;;;;14.10;9.00;;;20.60;99.90;;;;;;4973798;28;20055;-79
2021/07/16 10:26:51;;;;;;;17.45;8.88;;;20.60;99.90;;;;;;4973716;28;20062;-81
2021/07/16 10:29:35;;;;;;;14.82;8.45;;;20.80;99.90;;;;;;4974444;28;20054;-78
2021/07/16 10:32:02;;;;;;;16.70;8.85;;;21.10;99.90;;;;;;4974046;28;20046;-79
2021/07/16 10:34:34;;;;;;;10.85;7.82;;;21.20;99.90;;;;;;4974420;28;20160;-78
2021/07/16 10:37:02;;;;;;;;;;;21.40;99.90;;;;;;4973568;28;20058;-78
2021/07/16 10:39:52;;;;;;;13.52;8.20;;;21.70;99.90;;;;;;4973250;28;19973;-79
2021/07/16 10:42:39;;;;;;;14.55;7.93;;;21.60;99.90;;;;;;4973287;28;20134;-79
2021/07/16 10:45:09;;;;;;;17.77;8.40;;;21.70;99.90;;;;;;4973822;28;20086;-79
2021/07/16 10:47:37;;;;;;;12.55;8.00;;;21.60;99.90;;;;;;4975376;28;20051;-80
2021/07/16 10:50:05;;;;;;;12.95;7.22;;;21.40;99.90;;;;;;4974447;28;20134;-78
2021/07/16 10:52:47;;;;;;;13.68;7.85;;;21.40;99.90;;;;;;4973452;28;20490;-80
2021/07/16 10:55:16;;;;;;;9.30;6.95;;;21.40;99.90;;;;;;4972621;28;20050;-78
2021/07/16 10:57:48;;;;;;;14.57;7.80;;;21.40;99.90;;;;;;4972453;28;20083;-78
2021/07/16 11:00:50;;;;;;;12.55;7.35;;;21.40;99.90;;;;;;4975340;28;20054;-81
2021/07/16 11:03:18;;;;;;;14.68;7.32;;;21.40;99.90;;;;;;4974402;28;20418;-79
2021/07/16 11:05:55;;;;;;;13.32;7.00;;;21.50;99.90;;;;;;4974404;28;20138;-79
2021/07/16 11:09:06;;;;;;;15.50;6.95;;;21.60;99.90;;;;;;4975147;28;20106;-79
2021/07/16 11:11:39;;;;;;;13.52;7.20;;;21.90;99.90;;;;;;4974617;28;20093;-79
2021/07/16 11:14:07;;;;;;;;;;;22.00;99.90;;;;;;4974480;28;20061;-82
2021/07/16 11:16:44;;;;;;;16.23;7.93;;;22.00;99.90;;;;;;4974624;28;20403;-79
2021/07/16 11:19:23;;;;;;;18.60;7.95;;;21.90;99.90;;;;;;4974137;28;20074;-79
2021/07/16 11:22:04;;;;;;;13.00;7.38;;;21.90;99.90;;;;;;4973015;28;20133;-79
2021/07/16 11:24:34;;;;;;;15.40;7.07;;;21.80;99.90;;;;;;4972545;28;20157;-78
2021/07/16 11:27:03;;;;;;;15.75;7.50;;;21.80;99.90;;;;;;4972360;28;20500;-79
2021/07/16 11:29:34;;;;;;;16.10;7.28;;;21.90;99.90;;;;;;4973224;28;20051;-79
2021/07/16 11:32:06;;;;;;;15.63;7.40;;;22.10;99.90;;;;;;4974071;28;20047;-80
2021/07/16 11:34:34;;;;;;;11.77;6.55;;;22.30;99.90;;;;;;4973257;28;20456;-79
2021/07/16 11:37:01;;;;;;;16.08;7.50;;;22.50;99.90;;;;;;4972814;28;20431;-80
2021/07/16 11:39:30;;;;;;;15.23;7.57;;;22.50;99.90;;;;;;4972945;28;20054;-79
2021/07/16 11:41:57;;;;;;;14.20;7.63;;;22.60;99.90;;;;;;4972726;28;20051;-78
2021/07/16 11:44:32;;;;;;;14.88;7.32;;;22.60;99.90;;;;;;4972387;28;20137;-78
2021/07/16 11:47:00;;;;;;;19.70;8.00;;;22.60;99.90;;;;;;4972686;28;20058;-78
2021/07/16 11:49:28;;;;;;;15.05;6.88;;;22.50;99.90;;;;;;4972719;28;20134;-79
2021/07/16 11:52:02;;;;;;;16.80;7.32;;;22.50;99.90;;;;;;4972613;28;20138;-79
2021/07/16 11:54:30;;;;;;;15.43;7.30;;;22.40;99.90;;;;;;4972675;28;20475;-79
2021/07/16 11:56:58;;;;;;;21.17;8.07;;;22.20;99.90;;;;;;4972384;28;20146;-78
2021/07/16 11:59:26;;;;;;;21.40;8.18;;;22.10;99.90;;;;;;4972623;28;20053;-79
2021/07/16 12:02:09;;;;;;;17.55;7.18;;;22.10;99.90;;;;;;4972560;28;20485;-78
2021/07/16 12:04:36;;;;;;;;;;;21.80;99.90;;;;;;4972999;28;20134;-79
2021/07/16 12:07:04;;;;;;;23.90;9.77;;;21.80;99.90;;;;;;4973111;28;20013;-78
2021/07/16 12:09:35;;;;;;;19.40;8.77;;;21.80;99.90;;;;;;4975149;28;20533;-78
2021/07/16 12:12:05;;;;;;;17.33;7.53;;;21.80;99.90;;;;;;4976414;28;20050;-78
2021/07/16 12:14:45;;;;;;;21.13;8.02;;;21.70;99.90;;;;;;4975290;28;20140;-78
2021/07/16 12:17:14;;;;;;;17.02;7.63;;;21.70;99.90;;;;;;4975980;28;20057;-79
2021/07/16 12:19:41;;;;;;;21.00;7.93;;;21.80;99.90;;;;;;4976219;28;20078;-79
2021/07/16 12:22:08;;;;;;;18.60;8.05;;;21.90;99.90;;;;;;4976035;28;20076;-79
2021/07/16 12:24:36;;;;;;;17.52;8.18;;;21.80;99.90;;;;;;4975906;28;20061;-78
2021/07/16 12:27:07;;;;;;;18.05;8.32;;;21.80;99.90;;;;;;4976418;28;20221;-78
2021/07/16 12:29:34;;;;;;;15.43;7.63;;;22.10;99.90;;;;;;4975779;28;20496;-78
2021/07/16 12:32:01;;;;;;;13.35;7.22;;;22.10;99.90;;;;;;4975965;28;20218;-78
2021/07/16 12:34:29;;;;;;;16.92;7.63;;;22.20;99.90;;;;;;4975950;28;20064;-78
2021/07/16 12:37:10;;;;;;;20.83;8.45;;;22.30;99.90;;;;;;4976083;28;20134;-79
2021/07/16 12:39:38;;;;;;;18.83;8.27;;;22.40;99.90;;;;;;4975563;28;20133;-79
2021/07/16 12:42:14;;;;;;;16.92;7.53;;;22.30;99.90;;;;;;4975987;28;20450;-78
2021/07/16 12:45:00;;;;;;;21.63;8.18;;;22.20;99.90;;;;;;4975271;28;20141;-78
2021/07/16 12:47:27;;;;;;;18.80;7.97;;;22.10;99.90;;;;;;4974759;28;20063;-78
2021/07/16 12:50:07;;;;;;;18.85;8.75;;;22.00;99.90;;;;;;4974843;28;20387;-78
2021/07/16 12:52:34;;;;;;;25.90;8.98;;;21.90;99.90;;;;;;4974997;28;20146;-79
2021/07/16 12:55:15;;;;;;;18.40;7.97;;;21.90;99.90;;;;;;4974647;28;20051;-78
2021/07/16 12:57:42;;;;;;;17.52;8.02;;;21.90;99.90;;;;;;4975959;28;20137;-78
2021/07/16 13:00:20;;;;;;;16.75;8.80;;;21.90;99.90;;;;;;4975929;28;20081;-78
2021/07/16 13:02:48;;;;;;;17.38;7.75;;;22.00;99.90;;;;;;4975410;28;20051;-78
2021/07/16 13:05:32;;;;;;;22.15;8.13;;;22.00;99.90;;;;;;4975255;28;20054;-78
2021/07/16 13:08:17;;;;;;;19.40;8.23;;;22.00;99.90;;;;;;4974603;28;20051;-77
2021/07/16 13:10:53;;;;;;;18.73;8.25;;;22.10;99.90;;;;;;4976083;28;20508;-78
2021/07/16 13:13:23;;;;;;;16.08;8.13;;;22.20;99.90;;;;;;4975021;28;20058;-79
2021/07/16 13:16:19;;;;;;;24.70;7.93;;;22.30;99.90;;;;;;4975194;28;20474;-78
2021/07/16 13:18:47;;;;;;;16.90;7.78;;;22.20;99.90;;;;;;4975797;28;20478;-77
2021/07/16 13:21:17;;;;;;;20.88;7.60;;;22.10;99.90;;;;;;4974045;28;20457;-78